WetterOnline ( https://www.wetteronline.ch )

Wetter aktuell Weiden

Aktuelles Wetter: Weiden (439m)

6-stündlich | Neueste Meldungen
Ortszeit Temperatur Wetter
Mo, 13.07. 2:00 11.1° C leicht bewölkt
So, 12.07. 20:00 18.7° C bewölkt
So, 12.07. 14:00 20.1° C leicht bewölkt
So, 12.07. 8:00 11.0° C wolkenlos
So, 12.07. 2:00 9.9° C wolkig
Sa, 11.07. 20:00 18.4° C wolkenlos
Sa, 11.07. 14:00 16.7° C bedeckt
Sa, 11.07. 8:00 12.8° C Sprühregen
Ortszeit Temperatur Wetter
Mo, 13.07. 2:10 10.7° C wolkig
Mo, 13.07. 2:00 11.1° C leicht bewölkt
Mo, 13.07. 1:50 11.1° C leicht bewölkt
Mo, 13.07. 1:40 11.2° C fast wolkenlos
Mo, 13.07. 1:30 11.3° C fast wolkenlos
Mo, 13.07. 1:20 11.3° C fast wolkenlos
Mo, 13.07. 1:00 11.6° C wolkenlos
Mo, 13.07. 0:30 12.2° C fast wolkenlos
Mo, 13.07. 0:00 12.6° C wolkenlos
So, 12.07. 23:30 13.2° C wolkenlos
So, 12.07. 23:00 13.3° C wolkenlos
Ortszeit Relative Feuchte Sichtweite
Mo, 13.07. 2:00 75% 55 km
So, 12.07. 20:00 47% 50 km
So, 12.07. 14:00 34% 50 km
So, 12.07. 8:00 73% 35 km
So, 12.07. 2:00 92% 30 km
Sa, 11.07. 20:00 42% >70 km
Sa, 11.07. 14:00 61% 35 km
Sa, 11.07. 8:00 87% 35 km
Ortszeit Relative Feuchte Sichtweite
Mo, 13.07. 2:10 77% -
Mo, 13.07. 2:00 75% 55 km
Mo, 13.07. 1:50 75% -
Mo, 13.07. 1:40 75% -
Mo, 13.07. 1:30 75% 50 km
Mo, 13.07. 1:20 75% -
Mo, 13.07. 1:00 73% 55 km
Mo, 13.07. 0:30 70% 60 km
Mo, 13.07. 0:00 67% 55 km
So, 12.07. 23:30 64% 60 km
So, 12.07. 23:00 63% 65 km
Ortszeit Niederschlagsmenge Niederschlagsart
Mo, 13.07. 2:00 0.0 l/m2 in 6 Std. -
So, 12.07. 20:00 0.0 l/m2 in 12 Std. -
So, 12.07. 14:00 0.0 l/m2 in 6 Std. -
So, 12.07. 8:00 0.0 l/m2 in 12 Std. -
So, 12.07. 2:00 0.0 l/m2 in 6 Std. -
Sa, 11.07. 20:00 0.1 l/m2 in 12 Std. Regen
Sa, 11.07. 14:00 0.1 l/m2 in 6 Std. Regen
Sa, 11.07. 8:00 0.4 l/m2 in 12 Std. Regen
Ortszeit Niederschlagsmenge Niederschlagsart
Mo, 13.07. 2:10 keine Meldung -
Mo, 13.07. 2:00 0.0 l/m2 in 1 Std. -
Mo, 13.07. 1:50 keine Meldung -
Mo, 13.07. 1:40 keine Meldung -
Mo, 13.07. 1:30 0.0 l/m2 in 1 Std. -
Mo, 13.07. 1:20 keine Meldung -
Mo, 13.07. 1:00 0.0 l/m2 in 1 Std. -
Mo, 13.07. 0:30 0.0 l/m2 in 1 Std. -
Mo, 13.07. 0:00 0.0 l/m2 in 1 Std. -
So, 12.07. 23:30 0.0 l/m2 in 1 Std. -
So, 12.07. 23:00 0.0 l/m2 in 1 Std. -
Ortszeit Stärke Spitze Richtung
km/h Bft. km/h Grad Sektor
Mo, 13.07. 2:00 4 1 18 300° NW
So, 12.07. 20:00 7 2 22 60° NO
So, 12.07. 14:00 4 1 22 310° NW
So, 12.07. 8:00 4 1 7 320° NW
So, 12.07. 2:00 0 0 18 - -
Sa, 11.07. 20:00 11 2 26 340° N
Sa, 11.07. 14:00 9 2 22 350° N
Sa, 11.07. 8:00 9 2 20 10° N
Ortszeit Stärke Spitze Richtung
km/h Bft. km/h Grad Sektor
Mo, 13.07. 2:10 4 1 - 330° NW
Mo, 13.07. 2:00 4 1 7 300° NW
Mo, 13.07. 1:50 4 1 - 300° NW
Mo, 13.07. 1:40 2 1 - 260° W
Mo, 13.07. 1:30 2 1 6 330° NW
Mo, 13.07. 1:20 2 1 - 330° NW
Mo, 13.07. 1:00 2 1 7 360° N
Mo, 13.07. 0:30 4 1 7 70° O
Mo, 13.07. 0:00 4 1 7 360° N
So, 12.07. 23:30 4 1 7 60° NO
So, 12.07. 23:00 6 1 11 60° NO
Ortszeit Untergrenze Bedeckung Gattung
total tief tief mittel hoch
Mo, 13.07. 2:00 9000 m 4/8 0/8 - - -
So, 12.07. 20:00 2700 m 7/8 7/8 - - -
So, 12.07. 14:00 2400 m 3/8 3/8 - - -
So, 12.07. 8:00 - 0/8 0/8 - - -
So, 12.07. 2:00 2400 m 5/8 5/8 - - -
Sa, 11.07. 20:00 - 0/8 0/8 - - -
Sa, 11.07. 14:00 1800 m 8/8 8/8 - - -
Sa, 11.07. 8:00 1050 m 8/8 8/8 - - -
Ortszeit Bedeckungsgrad in Achtel und Wolkenuntergrenze
Mo, 13.07. 2:10 1(9000m) 6(9000m) 7(10500m)
Mo, 13.07. 2:00 2(9000m) 4(10500m)
Mo, 13.07. 1:50 2(9000m) 4(10500m)
Mo, 13.07. 1:40 2(9000m)
Mo, 13.07. 1:30 1(9000m)
Mo, 13.07. 1:20 1(9000m)
Mo, 13.07. 1:00 keine Wolken
Mo, 13.07. 0:30 1(10500m)
Mo, 13.07. 0:00 1(10500m)
So, 12.07. 23:30 keine Wolken
So, 12.07. 23:00 keine Wolken
Ortszeit Luftdruck NN (hPa) Tendenz (hPa in 3 Std.)
Mo, 13.07. 2:00 1026 - 0,4
So, 12.07. 20:00 1025 - 0,1
So, 12.07. 14:00 1025 - 0,3
So, 12.07. 8:00 1027 + 1,2
So, 12.07. 2:00 1026 + 0,3
Sa, 11.07. 20:00 1023 + 0,6
Sa, 11.07. 14:00 1022 + 1,0
Sa, 11.07. 8:00 1021 + 1,6
Ortszeit Luftdruck NN (hPa) Tendenz (hPa in 3 Std.)
Mo, 13.07. 2:10 1026 keine Meldung
Mo, 13.07. 2:00 1026 - 0,4
Mo, 13.07. 1:50 1026 keine Meldung
Mo, 13.07. 1:40 1026 keine Meldung
Mo, 13.07. 1:30 1026 - 0,2
Mo, 13.07. 1:20 1026 keine Meldung
Mo, 13.07. 1:00 1026 0,0
Mo, 13.07. 0:30 1026 + 0,2
Mo, 13.07. 0:00 1026 + 0,3
So, 12.07. 23:30 1026 + 0,3
So, 12.07. 23:00 1026 + 0,5
Ortszeit Schneehöhe (cm)
Mo, 13.07. 2:00 -
So, 12.07. 20:00 -
So, 12.07. 14:00 -
So, 12.07. 8:00 -
So, 12.07. 2:00 -
Sa, 11.07. 20:00 -
Sa, 11.07. 14:00 -
Sa, 11.07. 8:00 -
Ortszeit Schneehöhe (cm)
Mo, 13.07. 2:10 -
Mo, 13.07. 2:00 -
Mo, 13.07. 1:50 -
Mo, 13.07. 1:40 -
Mo, 13.07. 1:30 -
Mo, 13.07. 1:20 -
Mo, 13.07. 1:00 -
Mo, 13.07. 0:30 -
Mo, 13.07. 0:00 -
So, 12.07. 23:30 -
So, 12.07. 23:00 -
Link zu dieser Seite / Seite empfehlen

Das Wetter in ...